Time;durP1;ratioP1;P1;durP2;ratioP2;P2;SDS_P1;SDS_P2;PMS_P1;PMS_P2;Temp;Humidity;BMP_temperature;BMP_pressure;BME280_temperature;BME280_humidity;BME280_pressure;Samples;Min_cycle;Max_cycle;Signal;HPM_P1;HPM_P2
2021/03/31 00:00:46;;;;;;;21.07;10.37;;;;;;;13.08;46.26;97169.97;5059267;28;20510;-86
2021/03/31 00:03:14;;;;;;;18.70;9.20;;;;;;;13.07;45.85;97180.06;5059402;28;20504;-87
2021/03/31 00:05:41;;;;;;;17.00;10.10;;;;;;;13.06;46.07;97169.78;5059665;28;20453;-86
2021/03/31 00:08:08;;;;;;;16.37;8.83;;;;;;;13.03;46.13;97185.13;5059095;28;20486;-86
2021/03/31 00:10:37;;;;;;;14.60;9.40;;;;;;;12.98;46.31;97177.16;5060049;28;20462;-86
2021/03/31 00:13:04;;;;;;;18.47;10.43;;;;;;;12.89;46.72;97173.69;5060058;28;20490;-86
2021/03/31 00:15:30;;;;;;;16.63;10.03;;;;;;;12.85;46.75;97167.91;5073288;28;20406;-85
2021/03/31 00:17:56;;;;;;;16.73;8.97;;;;;;;12.82;46.92;97162.81;5078745;28;20428;-84
2021/03/31 00:20:22;;;;;;;21.70;10.97;;;;;;;12.83;46.76;97167.72;5078539;28;20460;-85
2021/03/31 00:22:50;;;;;;;17.40;10.13;;;;;;;12.81;46.89;97164.78;5061497;28;20423;-85
2021/03/31 00:25:17;;;;;;;15.80;9.27;;;;;;;12.79;46.74;97161.91;5059231;28;20452;-85
2021/03/31 00:27:44;;;;;;;15.00;9.77;;;;;;;12.82;46.54;97165.53;5059006;28;20554;-85
2021/03/31 00:30:13;;;;;;;17.37;10.63;;;;;;;12.79;46.73;97161.19;5068594;28;20533;-85
2021/03/31 00:32:40;;;;;;;21.63;11.47;;;;;;;12.81;46.88;97161.38;5067242;28;20444;-86
2021/03/31 00:35:07;;;;;;;17.13;9.97;;;;;;;12.77;46.31;97150.16;5058818;28;21000;-86
2021/03/31 00:37:33;;;;;;;16.43;9.47;;;;;;;12.77;46.99;97152.88;5059101;28;20431;-86
2021/03/31 00:40:00;;;;;;;17.20;9.93;;;;;;;12.77;46.62;97155.59;5059162;28;20441;-86
2021/03/31 00:42:26;;;;;;;17.00;9.60;;;;;;;12.77;46.71;97152.88;5058618;28;20595;-86
2021/03/31 00:44:53;;;;;;;17.30;9.20;;;;;;;12.79;46.42;97161.19;5058558;28;20933;-86
2021/03/31 00:47:19;;;;;;;16.87;9.97;;;;;;;12.79;46.72;97153.78;5059432;28;20482;-85
2021/03/31 00:49:45;;;;;;;18.20;9.93;;;;;;;12.79;46.53;97148.38;5059078;28;20857;-86
2021/03/31 00:52:11;;;;;;;18.50;9.20;;;;;;;12.79;46.33;97147.63;5059182;28;20423;-87
2021/03/31 00:54:37;;;;;;;16.87;9.77;;;;;;;12.77;46.45;97150.91;5059083;28;20409;-86
2021/03/31 00:57:06;;;;;;;21.33;10.47;;;;;;;12.73;46.40;97147.81;5059060;28;20445;-85
2021/03/31 00:59:32;;;;;;;15.20;9.10;;;;;;;12.71;46.38;97150.31;5059007;28;20434;-86
2021/03/31 01:01:58;;;;;;;17.87;10.13;;;;;;;12.71;46.50;97144.19;5058682;28;20432;-86
2021/03/31 01:04:24;;;;;;;17.43;9.07;;;;;;;12.67;46.56;97152.66;5057760;28;20491;-86
2021/03/31 01:06:50;;;;;;;16.70;9.43;;;;;;;12.66;46.63;97153.91;5058686;28;20486;-86
2021/03/31 01:09:16;;;;;;;17.53;9.93;;;;;;;12.64;46.90;97150.28;5058818;28;20867;-86
2021/03/31 01:11:48;;;;;;;16.40;9.50;;;;;;;12.61;46.28;97148.66;5058612;28;20794;-86
2021/03/31 01:14:23;;;;;;;18.20;10.07;;;;;;;12.58;46.50;97144.28;5058526;28;20389;-86
2021/03/31 01:16:51;;;;;;;16.50;10.60;;;;;;;12.53;46.34;97143.19;5058600;28;20397;-87
2021/03/31 01:19:41;;;;;;;16.33;8.67;;;;;;;12.50;47.37;97133.41;5057983;28;20389;-86
2021/03/31 01:22:57;;;;;;;21.00;9.87;;;;;;;12.46;47.18;97132.31;5058757;28;20461;-87
2021/03/31 01:25:32;;;;;;;16.53;10.13;;;;;;;12.43;47.07;97139.53;5058173;28;20449;-87
2021/03/31 01:28:16;;;;;;;20.97;9.70;;;;;;;12.42;46.81;97137.34;5058359;28;20970;-87
2021/03/31 01:30:53;;;;;;;16.60;9.40;;;;;;;12.36;47.30;97137.50;5058204;28;20437;-87
2021/03/31 01:33:50;;;;;;;18.47;10.27;;;;;;;12.33;47.33;97131.19;5058326;28;20937;-86
2021/03/31 01:36:19;;;;;;;18.53;11.00;;;;;;;12.31;47.32;97124.81;5058258;28;20399;-86
2021/03/31 01:38:48;;;;;;;18.33;10.20;;;;;;;12.28;47.02;97128.59;5057686;28;20986;-85
2021/03/31 01:41:18;;;;;;;18.50;9.60;;;;;;;12.24;47.21;97114.69;5061762;28;20462;-86
2021/03/31 01:43:48;;;;;;;15.93;10.13;;;;;;;12.22;47.33;97114.50;5061929;28;20476;-86
2021/03/31 01:46:16;;;;;;;17.90;10.60;;;;;;;12.22;47.57;97107.09;5061596;28;20838;-86
2021/03/31 01:48:43;;;;;;;19.27;10.30;;;;;;;12.22;47.85;97107.09;5061915;28;20446;-86
2021/03/31 01:51:11;;;;;;;19.17;10.23;;;;;;;12.23;47.60;97105.84;5061340;28;21008;-87
2021/03/31 01:53:39;;;;;;;18.90;9.80;;;;;;;12.20;47.45;97108.91;5061542;28;20445;-86
2021/03/31 01:56:07;;;;;;;18.77;10.60;;;;;;;12.17;47.88;97105.28;5061879;28;20488;-86
2021/03/31 01:58:36;;;;;;;20.17;10.40;;;;;;;12.12;48.00;97100.03;5061809;28;20477;-87
2021/03/31 02:01:03;;;;;;;17.00;9.33;;;;;;;12.08;47.83;97096.94;5061427;28;20473;-87
2021/03/31 02:03:30;;;;;;;22.93;12.00;;;;;;;12.03;48.30;97100.50;5060108;28;20421;-87
2021/03/31 02:05:57;;;;;;;20.73;11.20;;;;;;;12.01;48.18;97097.59;5062715;28;20445;-87
2021/03/31 02:08:24;;;;;;;18.03;9.87;;;;;;;11.98;48.48;97093.25;5062152;28;20452;-86
2021/03/31 02:10:51;;;;;;;19.07;10.73;;;;;;;11.92;48.52;97084.56;5062299;28;20543;-87
2021/03/31 02:13:18;;;;;;;19.40;10.83;;;;;;;11.90;48.48;97082.41;5062349;28;20417;-87
2021/03/31 02:15:47;;;;;;;17.43;9.73;;;;;;;11.88;48.58;97074.06;5062251;28;20437;-85
2021/03/31 02:18:17;;;;;;;24.70;11.10;;;;;;;11.87;48.58;97077.31;5061342;28;20510;-85
2021/03/31 02:20:44;;;;;;;22.07;10.60;;;;;;;11.82;49.08;97070.78;5066641;28;20425;-85
2021/03/31 02:23:11;;;;;;;19.03;10.97;;;;;;;11.76;49.34;97079.03;5080746;28;20442;-86
2021/03/31 02:25:37;;;;;;;16.70;11.13;;;;;;;11.73;49.73;97069.28;5080627;28;20453;-86
2021/03/31 02:28:04;;;;;;;16.50;9.63;;;;;;;11.70;49.40;97072.31;5080579;28;20460;-86
2021/03/31 02:30:31;;;;;;;17.80;10.80;;;;;;;11.65;49.52;97065.75;5070702;28;20493;-86
2021/03/31 02:33:00;;;;;;;16.17;10.70;;;;;;;11.61;50.09;97061.97;5062338;28;20508;-85
2021/03/31 02:35:29;;;;;;;19.90;11.00;;;;;;;11.58;50.04;97069.16;5062165;28;20451;-85
2021/03/31 02:37:59;;;;;;;21.47;10.43;;;;;;;11.57;50.12;97058.84;5061569;28;20443;-85
2021/03/31 02:40:27;;;;;;;20.10;10.60;;;;;;;11.54;50.21;97068.75;5061868;28;20557;-85
2021/03/31 02:42:54;;;;;;;19.57;10.70;;;;;;;11.52;50.22;97065.13;5062092;28;20504;-85
2021/03/31 02:45:25;;;;;;;19.70;11.70;;;;;;;11.49;50.24;97050.72;5061777;28;20963;-85
2021/03/31 02:47:52;;;;;;;21.60;11.60;;;;;;;11.46;50.44;97057.16;5061858;28;20472;-85
2021/03/31 02:50:23;;;;;;;21.73;10.73;;;;;;;11.46;50.38;97053.75;5060836;28;20454;-86
2021/03/31 02:52:51;;;;;;;17.40;9.87;;;;;;;11.42;50.70;97047.94;5061363;28;20438;-86
2021/03/31 02:55:18;;;;;;;18.47;11.43;;;;;;;11.42;50.23;97045.22;5061822;28;20413;-87
2021/03/31 02:57:45;;;;;;;19.10;10.93;;;;;;;11.39;50.67;97047.03;5062028;28;20500;-86
2021/03/31 03:00:13;;;;;;;20.67;10.50;;;;;;;11.37;50.76;97048.81;5061437;28;20493;-86
2021/03/31 03:02:43;;;;;;;17.17;10.17;;;;;;;11.34;50.58;97049.88;5061585;28;20943;-85
2021/03/31 03:05:11;;;;;;;21.50;10.90;;;;;;;11.26;51.75;97045.13;5061974;28;20421;-85
2021/03/31 03:07:38;;;;;;;19.53;11.40;;;;;;;11.25;51.14;97048.31;5062588;28;20565;-87
2021/03/31 03:10:07;;;;;;;25.57;10.57;;;;;;;11.21;51.39;97048.66;5061492;28;20493;-85
2021/03/31 03:12:37;;;;;;;20.43;12.13;;;;;;;11.17;51.62;97045.56;5062074;28;20460;-86
2021/03/31 03:15:05;;;;;;;21.00;10.27;;;;;;;11.13;51.52;97047.88;5060919;28;20452;-86
2021/03/31 03:17:31;;;;;;;20.07;10.57;;;;;;;11.09;51.99;97046.75;5061311;28;20913;-86
2021/03/31 03:19:58;;;;;;;20.00;11.30;;;;;;;11.05;51.77;97035.56;5061290;28;20447;-85
2021/03/31 03:22:25;;;;;;;21.07;11.27;;;;;;;11.01;52.21;97040.56;5061379;28;20499;-86
2021/03/31 03:24:52;;;;;;;20.60;11.00;;;;;;;10.92;53.11;97033.63;5060788;28;20858;-86
2021/03/31 03:27:19;;;;;;;21.37;11.30;;;;;;;10.84;52.68;97042.91;5060904;28;20487;-85
2021/03/31 03:29:46;;;;;;;21.33;11.10;;;;;;;10.77;52.59;97038.16;5061407;28;20429;-85
2021/03/31 03:32:13;;;;;;;16.77;9.97;;;;;;;10.72;52.97;97037.03;5060994;28;20564;-86
2021/03/31 03:34:41;;;;;;;18.50;10.83;;;;;;;10.66;53.24;97036.41;5061145;28;20429;-86
2021/03/31 03:37:08;;;;;;;21.20;10.30;;;;;;;10.54;54.26;97038.63;5061532;28;20475;-85
2021/03/31 03:39:34;;;;;;;23.23;10.30;;;;;;;10.46;54.84;97035.09;5061127;28;20474;-86
2021/03/31 03:42:01;;;;;;;20.27;11.47;;;;;;;10.38;55.22;97033.56;5061139;28;20425;-86
2021/03/31 03:44:27;;;;;;;18.07;10.23;;;;;;;10.31;55.30;97036.91;5061055;28;20454;-85
2021/03/31 03:46:55;;;;;;;20.50;11.50;;;;;;;10.30;55.48;97036.19;5061464;28;20449;-86
2021/03/31 03:49:22;;;;;;;23.47;12.37;;;;;;;10.27;55.64;97031.84;5060109;28;20425;-85
2021/03/31 03:51:49;;;;;;;25.47;11.87;;;;;;;10.23;56.01;97036.81;5060998;28;20541;-85
2021/03/31 03:54:16;;;;;;;16.10;9.80;;;;;;;10.22;55.55;97029.97;5060093;28;20481;-87
2021/03/31 03:56:46;;;;;;;18.40;10.30;;;;;;;10.16;56.26;97024.69;5059544;28;20480;-86
2021/03/31 03:59:23;;;;;;;18.03;11.10;;;;;;;10.16;55.91;97030.09;5060012;28;20759;-86
2021/03/31 04:01:50;;;;;;;16.10;9.43;;;;;;;10.17;55.78;97025.44;5059933;28;20428;-86
2021/03/31 04:04:17;;;;;;;23.30;10.97;;;;;;;10.18;55.72;97030.28;5059753;28;20477;-87
2021/03/31 04:06:43;;;;;;;14.90;9.80;;;;;;;10.21;55.50;97033.94;5059743;28;20412;-86
2021/03/31 04:09:10;;;;;;;20.90;9.80;;;;;;;10.19;55.67;97025.63;5059868;28;20424;-86
2021/03/31 04:11:38;;;;;;;16.30;10.30;;;;;;;10.22;55.75;97027.28;5059982;28;20580;-88
2021/03/31 04:14:06;;;;;;;25.00;11.63;;;;;;;10.22;55.70;97024.56;5060799;28;20927;-87
2021/03/31 04:16:35;;;;;;;20.73;11.20;;;;;;;10.25;55.66;97025.50;5060209;28;20514;-86
2021/03/31 04:19:05;;;;;;;16.93;9.80;;;;;;;10.24;55.50;97034.84;5059736;28;20490;-87
2021/03/31 04:21:35;;;;;;;24.47;13.50;;;;;;;10.23;55.63;97031.44;5059871;28;20529;-87
2021/03/31 04:24:01;;;;;;;27.97;13.80;;;;;;;10.23;56.01;97031.44;5060430;28;20461;-86
2021/03/31 04:26:31;;;;;;;35.30;17.33;;;;;;;10.20;55.99;97035.91;5060327;28;20464;-86
2021/03/31 04:28:58;;;;;;;33.77;17.10;;;;;;;10.20;55.94;97037.88;5059664;28;20441;-87
2021/03/31 04:31:27;;;;;;;31.63;16.83;;;;;;;10.22;56.10;97038.06;5059938;28;20461;-85
2021/03/31 04:33:54;;;;;;;26.87;13.83;;;;;;;10.22;56.14;97035.38;5058984;28;20977;-86
2021/03/31 04:36:20;;;;;;;26.20;13.07;;;;;;;10.23;55.94;97036.09;5059825;28;20409;-85
2021/03/31 04:38:48;;;;;;;23.50;12.50;;;;;;;10.21;55.74;97036.63;5059562;28;20417;-86
2021/03/31 04:41:14;;;;;;;24.37;12.97;;;;;;;10.19;55.89;97033.72;5059397;28;20531;-86
2021/03/31 04:43:40;;;;;;;17.33;9.87;;;;;;;10.18;55.76;97027.59;5059502;28;20449;-85
2021/03/31 04:46:08;;;;;;;18.30;11.70;;;;;;;10.18;55.96;97037.66;5059620;28;20431;-85
2021/03/31 04:48:35;;;;;;;16.13;10.03;;;;;;;10.16;56.04;97030.09;5059803;28;20490;-86
2021/03/31 04:51:02;;;;;;;18.57;10.20;;;;;;;10.17;56.45;97036.22;5059513;28;20460;-87
2021/03/31 04:53:28;;;;;;;18.67;10.40;;;;;;;10.16;56.06;97034.75;5059488;28;20398;-86
2021/03/31 04:55:54;;;;;;;23.13;9.80;;;;;;;10.15;56.28;97039.41;5060291;28;20950;-86
2021/03/31 04:58:21;;;;;;;18.73;10.73;;;;;;;10.18;55.83;97043.78;5060236;28;20474;-87
2021/03/31 05:00:47;;;;;;;20.20;9.40;;;;;;;10.13;56.13;97041.16;5060318;28;20525;-86
2021/03/31 05:03:14;;;;;;;21.87;10.10;;;;;;;10.12;56.45;97039.69;5061853;28;20469;-87
2021/03/31 05:05:40;;;;;;;20.00;10.47;;;;;;;10.12;56.43;97035.03;5060419;28;20466;-85
2021/03/31 05:08:07;;;;;;;16.37;9.77;;;;;;;10.17;56.42;97038.91;5059925;28;20520;-87
2021/03/31 05:10:34;;;;;;;23.83;10.40;;;;;;;10.29;56.11;97029.34;5059836;28;20643;-88
2021/03/31 05:13:00;;;;;;;17.00;9.17;;;;;;;10.43;56.01;97030.06;5060665;28;20520;-88
2021/03/31 05:15:26;;;;;;;24.23;9.90;;;;;;;10.59;55.43;97039.75;5062496;28;20417;-87
2021/03/31 05:17:52;;;;;;;20.77;10.10;;;;;;;10.80;55.22;97042.50;5064458;28;20510;-88
2021/03/31 05:20:19;;;;;;;26.00;10.27;;;;;;;11.01;54.12;97043.25;5064105;28;21037;-87
2021/03/31 05:22:45;;;;;;;23.23;9.23;;;;;;;11.18;54.00;97038.91;5063530;28;20445;-87
2021/03/31 05:25:12;;;;;;;21.30;11.27;;;;;;;11.35;53.80;97038.50;5064827;28;20794;-87
2021/03/31 05:27:38;;;;;;;14.83;9.53;;;;;;;11.57;53.22;97037.97;5077078;28;20816;-87
2021/03/31 05:30:06;;;;;;;22.43;9.87;;;;;;;11.63;53.43;97029.72;5079904;28;20469;-87
2021/03/31 05:32:32;;;;;;;18.40;10.10;;;;;;;11.74;52.79;97035.59;5077504;28;20436;-87
2021/03/31 05:34:59;;;;;;;17.47;10.30;;;;;;;12.07;52.07;97027.84;5072372;28;20403;-87
2021/03/31 05:37:26;;;;;;;21.63;9.17;;;;;;;12.38;51.08;97031.41;5064168;28;20478;-88
2021/03/31 05:39:52;;;;;;;19.87;10.43;;;;;;;12.57;50.92;97027.16;5064256;28;20549;-87
2021/03/31 05:42:19;;;;;;;19.17;10.13;;;;;;;12.76;50.39;97030.28;5063926;28;20441;-86
2021/03/31 05:44:45;;;;;;;22.73;10.47;;;;;;;12.91;49.71;97024.16;5063766;28;20799;-86
2021/03/31 05:47:18;;;;;;;17.27;9.87;;;;;;;13.20;49.22;97024.78;5063231;28;20532;-86
2021/03/31 05:49:45;;;;;;;27.13;9.33;;;;;;;13.34;48.67;97020.63;5063694;28;20415;-86
2021/03/31 05:52:11;;;;;;;17.03;9.20;;;;;;;13.67;48.37;97022.22;5064243;28;20445;-87
2021/03/31 05:54:38;;;;;;;22.23;9.10;;;;;;;14.09;47.50;97024.50;5064656;28;20417;-87
2021/03/31 05:57:07;;;;;;;20.97;9.80;;;;;;;14.36;46.74;97023.53;5064061;28;20416;-87
2021/03/31 05:59:33;;;;;;;20.60;9.40;;;;;;;14.59;45.63;97028.88;5063517;28;20455;-86
2021/03/31 06:01:59;;;;;;;15.03;9.57;;;;;;;14.82;45.59;97028.75;5063383;28;20516;-86
2021/03/31 06:04:26;;;;;;;23.00;9.50;;;;;;;15.05;44.55;97018.47;5063454;28;20470;-86
2021/03/31 06:06:52;;;;;;;14.63;9.50;;;;;;;15.15;44.50;97021.28;5063735;28;20473;-87
2021/03/31 06:09:18;;;;;;;22.40;10.13;;;;;;;15.15;44.71;97018.56;5063507;28;20477;-86
2021/03/31 06:11:53;;;;;;;14.27;8.90;;;;;;;15.24;44.29;97026.84;5063222;28;20465;-86
2021/03/31 06:14:29;;;;;;;23.03;11.03;;;;;;;15.16;44.37;97017.31;5063214;28;20441;-87
2021/03/31 06:17:09;;;;;;;23.73;9.43;;;;;;;15.09;44.32;97018.06;5078248;28;20435;-85
2021/03/31 06:19:38;;;;;;;16.23;8.93;;;;;;;15.01;44.67;97016.13;5080645;28;20430;-85
2021/03/31 06:22:11;;;;;;;22.40;10.00;;;;;;;14.82;44.79;97026.75;5080142;28;20401;-85
2021/03/31 06:24:44;;;;;;;18.83;9.77;;;;;;;14.81;45.50;97022.59;5063481;28;20418;-87
2021/03/31 06:27:12;;;;;;;16.43;9.00;;;;;;;15.04;45.06;97017.00;5063138;28;20440;-87
2021/03/31 06:29:43;;;;;;;26.80;11.93;;;;;;;15.64;44.12;97021.28;5065347;28;20468;-87
2021/03/31 06:32:17;;;;;;;17.20;10.63;;;;;;;15.81;43.54;97023.31;5064249;28;20435;-87
2021/03/31 06:34:54;;;;;;;22.13;10.37;;;;;;;16.22;42.77;97017.06;5063051;28;20450;-86
2021/03/31 06:37:27;;;;;;;12.50;8.83;;;;;;;16.23;43.02;97028.66;5063097;28;20911;-87
2021/03/31 06:39:53;;;;;;;18.47;8.60;;;;;;;16.10;43.39;97026.28;5062359;28;20455;-86
2021/03/31 06:42:22;;;;;;;21.30;10.20;;;;;;;16.15;43.16;97023.31;5062356;28;20431;-86
2021/03/31 06:44:59;;;;;;;21.40;9.30;;;;;;;16.91;41.26;97028.59;5064010;28;20458;-88
2021/03/31 06:47:29;;;;;;;11.87;9.50;;;;;;;16.88;41.27;97027.00;5064157;28;20482;-88
2021/03/31 06:49:56;;;;;;;15.10;10.37;;;;;;;16.57;41.41;97023.94;5065158;28;20466;-89
2021/03/31 06:52:22;;;;;;;13.47;8.80;;;;;;;16.24;41.67;97022.69;5062560;28;20465;-88
2021/03/31 06:54:50;;;;;;;20.87;9.57;;;;;;;15.94;42.50;97018.25;5062858;28;20474;-87
2021/03/31 06:57:25;;;;;;;15.17;9.60;;;;;;;15.71;42.89;97020.50;5062519;28;20787;-86
2021/03/31 07:00:00;;;;;;;24.10;9.87;;;;;;;15.20;44.31;97033.94;5062831;28;20454;-86
2021/03/31 07:02:29;;;;;;;12.97;8.93;;;;;;;15.24;44.59;97021.41;5062534;28;20426;-87
2021/03/31 07:04:56;;;;;;;17.20;9.47;;;;;;;15.05;44.74;97023.16;5063663;28;20423;-85
2021/03/31 07:07:30;;;;;;;15.33;9.90;;;;;;;14.91;45.60;97015.28;5062597;28;20492;-86
2021/03/31 07:10:04;;;;;;;19.70;9.33;;;;;;;14.88;45.93;97010.94;5062398;28;20477;-87
2021/03/31 07:12:37;;;;;;;22.43;9.50;;;;;;;14.92;46.33;97014.00;5063041;28;20390;-87
2021/03/31 07:15:04;;;;;;;14.60;8.87;;;;;;;15.12;45.95;97012.25;5062829;28;20742;-86
2021/03/31 07:17:32;;;;;;;18.90;10.27;;;;;;;15.20;46.13;97017.63;5062351;28;20473;-88
2021/03/31 07:20:00;;;;;;;19.80;8.63;;;;;;;15.35;46.05;97012.78;5063408;28;20536;-88
2021/03/31 07:22:29;;;;;;;17.50;9.30;;;;;;;15.73;44.86;97017.94;5062878;28;20400;-87
2021/03/31 07:28:26;;;;;;;15.27;9.67;;;;;;;16.36;43.78;97017.44;5062765;28;20911;-88
2021/03/31 07:30:53;;;;;;;19.03;8.83;;;;;;;16.87;43.07;97017.38;5063103;28;20521;-89
2021/03/31 07:33:23;;;;;;;20.03;8.90;;;;;;;17.45;41.89;97021.03;5062307;28;20445;-88
2021/03/31 07:35:50;;;;;;;16.63;9.27;;;;;;;17.80;40.74;97020.84;5062486;28;20454;-86
2021/03/31 07:38:20;;;;;;;12.67;8.77;;;;;;;17.78;41.12;97015.97;5062255;28;20447;-89
2021/03/31 07:40:48;;;;;;;17.40;9.47;;;;;;;17.87;41.35;97020.72;5062385;28;20455;-87
2021/03/31 07:43:17;;;;;;;18.80;10.13;;;;;;;18.15;40.87;97019.28;5061940;28;20442;-86
2021/03/31 07:45:46;;;;;;;17.80;9.70;;;;;;;18.29;40.55;97022.31;5061339;28;20458;-87
2021/03/31 07:48:14;;;;;;;21.03;9.37;;;;;;;18.23;40.64;97030.09;5062133;28;20551;-88
2021/03/31 07:50:42;;;;;;;16.90;8.20;;;;;;;18.60;40.59;97028.66;5061296;28;20466;-87
2021/03/31 07:53:08;;;;;;;21.63;9.20;;;;;;;18.58;40.77;97028.47;5061938;28;20496;-86
2021/03/31 07:55:37;;;;;;;20.87;10.53;;;;;;;18.66;40.68;97026.31;5061826;28;20498;-85
2021/03/31 07:58:24;;;;;;;18.00;10.00;;;;;;;18.94;40.08;97022.81;5061218;28;20489;-87
2021/03/31 08:01:01;;;;;;;15.87;9.60;;;;;;;19.27;39.39;97025.69;5061446;28;20455;-88
2021/03/31 08:03:28;;;;;;;18.00;9.80;;;;;;;19.55;38.94;97019.38;5061655;28;20430;-88
2021/03/31 08:06:16;;;;;;;14.50;9.17;;;;;;;20.01;38.41;97027.19;5061785;28;20525;-88
2021/03/31 08:08:57;;;;;;;23.33;9.43;;;;;;;20.58;37.73;97023.25;5061262;28;20486;-88
2021/03/31 08:11:47;;;;;;;14.20;9.10;;;;;;;21.01;36.59;97023.09;5060800;28;20569;-87
2021/03/31 08:14:14;;;;;;;20.30;11.13;;;;;;;20.89;36.39;97030.63;5060894;28;20446;-88
2021/03/31 08:16:43;;;;;;;25.20;10.33;;;;;;;21.27;36.14;97035.66;5060762;28;20438;-88
2021/03/31 08:19:13;;;;;;;19.10;10.13;;;;;;;21.20;36.18;97028.41;5060635;28;20525;-87
2021/03/31 08:21:40;;;;;;;21.10;11.07;;;;;;;21.45;35.91;97025.78;5060358;28;20454;-85
2021/03/31 08:24:07;;;;;;;15.67;9.60;;;;;;;21.40;35.75;97026.13;5061570;28;20434;-85
2021/03/31 08:26:37;;;;;;;17.20;10.13;;;;;;;21.40;35.52;97034.38;5067951;28;20520;-86
2021/03/31 08:29:05;;;;;;;22.00;10.80;;;;;;;21.30;35.61;97031.75;5069927;28;20469;-85
2021/03/31 08:31:37;;;;;;;19.73;10.07;;;;;;;20.93;36.58;97033.59;5070952;28;20980;-86
2021/03/31 08:34:05;;;;;;;16.50;9.90;;;;;;;20.84;36.97;97032.38;5063279;28;20794;-85
2021/03/31 08:36:31;;;;;;;18.40;10.50;;;;;;;20.69;37.47;97035.56;5061240;28;20446;-86
2021/03/31 08:38:59;;;;;;;17.63;9.03;;;;;;;20.64;37.82;97034.59;5061852;28;20522;-88
2021/03/31 08:41:28;;;;;;;22.77;8.93;;;;;;;20.68;38.07;97028.66;5060681;28;20608;-85
2021/03/31 08:44:13;;;;;;;18.87;9.40;;;;;;;20.61;37.65;97024.81;5060097;28;20947;-87
2021/03/31 08:46:40;;;;;;;14.10;8.40;;;;;;;20.36;38.02;97030.09;5059260;28;20454;-86
2021/03/31 08:49:07;;;;;;;21.53;10.40;;;;;;;20.40;37.79;97024.13;5059880;28;20482;-86
2021/03/31 08:51:40;;;;;;;23.30;10.47;;;;;;;20.38;37.76;97022.00;5064843;28;20461;-86
2021/03/31 08:54:06;;;;;;;21.40;10.20;;;;;;;20.27;38.25;97017.91;5065042;28;20430;-85
2021/03/31 08:56:32;;;;;;;18.13;11.00;;;;;;;20.19;37.68;97011.91;5065572;28;20518;-87
2021/03/31 08:58:58;;;;;;;19.87;10.07;;;;;;;20.16;38.83;97021.28;5065298;28;20764;-87
2021/03/31 09:01:26;;;;;;;16.97;10.03;;;;;;;20.37;38.15;97019.84;5064480;28;20465;-87
2021/03/31 09:03:52;;;;;;;18.97;9.67;;;;;;;20.47;37.88;97020.47;5064489;28;20465;-86
2021/03/31 09:06:19;;;;;;;17.77;9.90;;;;;;;20.27;37.97;97017.91;5064495;28;20478;-86
2021/03/31 09:08:46;;;;;;;21.33;9.40;;;;;;;20.25;37.90;97019.78;5061839;28;20532;-87
2021/03/31 09:11:17;;;;;;;20.30;9.40;;;;;;;20.27;38.34;97012.41;5062933;28;20470;-85
2021/03/31 09:13:43;;;;;;;17.30;9.13;;;;;;;20.30;37.82;97010.53;5063770;28;20912;-86
2021/03/31 09:16:14;;;;;;;21.83;9.60;;;;;;;20.14;38.32;97006.75;5063624;28;20888;-85
2021/03/31 09:18:41;;;;;;;20.37;10.43;;;;;;;20.34;37.77;97012.81;5065137;28;20446;-87
2021/03/31 09:21:07;;;;;;;16.60;10.13;;;;;;;20.35;38.11;97006.75;5062529;28;20533;-87
2021/03/31 09:23:34;;;;;;;18.70;10.70;;;;;;;20.26;39.03;97013.75;5063904;28;20481;-87
2021/03/31 09:26:03;;;;;;;19.33;10.50;;;;;;;20.36;38.44;97007.47;5064214;28;20478;-87
2021/03/31 09:28:30;;;;;;;15.73;8.73;;;;;;;20.26;38.77;97005.53;5063865;28;20496;-87
2021/03/31 09:31:01;;;;;;;17.70;9.20;;;;;;;20.30;38.61;97005.75;5064644;28;20484;-85
2021/03/31 09:33:31;;;;;;;22.83;9.57;;;;;;;20.48;38.70;96999.97;5063411;28;20427;-88
2021/03/31 09:36:11;;;;;;;16.90;9.83;;;;;;;20.46;38.65;97003.31;5065311;28;20457;-86
2021/03/31 09:38:38;;;;;;;14.30;9.07;;;;;;;20.54;38.35;97000.34;5062770;28;20926;-87
2021/03/31 09:41:05;;;;;;;22.80;10.40;;;;;;;20.68;37.73;97001.22;5063945;28;20518;-86
2021/03/31 09:43:32;;;;;;;17.63;9.90;;;;;;;20.86;38.02;97002.34;5062837;28;20548;-86
2021/03/31 09:45:58;;;;;;;20.13;8.73;;;;;;;20.94;37.19;97002.09;5061480;28;20471;-85
2021/03/31 09:48:25;;;;;;;19.50;9.50;;;;;;;21.02;37.56;96997.09;5063477;28;20549;-87
2021/03/31 09:50:52;;;;;;;16.77;9.90;;;;;;;21.10;37.31;96997.59;5063469;28;20485;-85
2021/03/31 09:53:22;;;;;;;15.27;9.60;;;;;;;21.10;36.96;96990.09;5064279;28;20540;-86
2021/03/31 09:55:49;;;;;;;15.17;10.07;;;;;;;21.13;36.47;96991.66;5063489;28;20485;-86
2021/03/31 09:58:21;;;;;;;17.03;9.50;;;;;;;21.19;36.44;96988.53;5063457;28;20445;-86
2021/03/31 10:00:47;;;;;;;20.43;11.07;;;;;;;21.21;36.66;96994.13;5066507;28;20530;-86
2021/03/31 10:03:14;;;;;;;18.70;10.63;;;;;;;21.38;36.55;96982.06;5064598;28;20438;-87
2021/03/31 10:05:40;;;;;;;22.67;9.47;;;;;;;21.52;36.75;96980.84;5063220;28;20442;-86
2021/03/31 10:08:09;;;;;;;18.37;10.33;;;;;;;21.59;36.32;96987.41;5073169;28;20461;-86
2021/03/31 10:10:41;;;;;;;16.83;9.37;;;;;;;21.56;36.10;96980.38;5079063;28;20488;-85
2021/03/31 10:13:08;;;;;;;18.53;10.40;;;;;;;21.70;35.11;96978.44;5067866;28;20515;-86
2021/03/31 10:15:34;;;;;;;20.30;10.73;;;;;;;21.71;35.65;96972.34;5064794;28;20448;-86
2021/03/31 10:18:01;;;;;;;15.60;11.33;;;;;;;21.67;34.42;96976.91;5065540;28;20473;-85
2021/03/31 10:20:31;;;;;;;17.70;11.17;;;;;;;21.56;34.73;96963.91;5064914;28;20509;-87
2021/03/31 10:22:57;;;;;;;22.07;9.63;;;;;;;21.62;35.00;96962.22;5067634;28;20903;-87
2021/03/31 10:25:26;;;;;;;15.00;10.30;;;;;;;21.63;34.83;96962.94;5064254;28;20821;-88
2021/03/31 10:27:52;;;;;;;20.93;10.20;;;;;;;21.19;35.57;96961.81;5063935;28;20982;-86
2021/03/31 10:30:27;;;;;;;17.13;10.53;;;;;;;21.40;35.63;96958.19;5065207;28;20490;-86
2021/03/31 10:32:54;;;;;;;21.73;11.10;;;;;;;21.53;36.17;96959.59;5063967;28;20820;-85
2021/03/31 10:35:43;;;;;;;16.73;11.63;;;;;;;21.41;36.54;96959.63;5068245;28;20955;-86
2021/03/31 10:38:17;;;;;;;15.63;10.43;;;;;;;21.49;35.71;96956.66;5065695;28;20427;-86
2021/03/31 10:41:12;;;;;;;22.87;11.77;;;;;;;21.63;35.83;96957.44;5064559;28;20470;-86
2021/03/31 10:49:37;;;;;;;15.00;9.90;;;;;;;21.48;35.12;96952.47;5003173;28;20481;-86
2021/03/31 10:52:05;;;;;;;21.90;10.13;;;;;;;21.64;35.41;96954.09;5001999;28;20433;-87
2021/03/31 10:54:34;;;;;;;20.33;11.00;;;;;;;21.75;34.97;96949.88;5035626;28;20453;-87
2021/03/31 10:57:09;;;;;;;16.43;10.90;;;;;;;21.77;34.99;96947.94;5064254;28;20450;-86
2021/03/31 10:59:35;;;;;;;26.37;11.00;;;;;;;21.88;34.80;96939.00;5064349;28;20429;-86
2021/03/31 11:02:02;;;;;;;17.20;10.57;;;;;;;21.95;34.50;96937.28;5064562;28;20510;-86
2021/03/31 11:04:28;;;;;;;18.27;10.67;;;;;;;22.15;34.72;96941.13;5064378;28;20477;-86
2021/03/31 11:06:54;;;;;;;33.70;12.20;;;;;;;22.27;34.17;96941.78;5066307;28;20450;-86
2021/03/31 11:09:21;;;;;;;19.13;11.70;;;;;;;22.25;34.09;96938.94;5066037;28;20508;-86
2021/03/31 11:11:47;;;;;;;16.83;11.37;;;;;;;22.22;34.00;96933.94;5062868;28;20494;-86
2021/03/31 11:14:13;;;;;;;22.53;11.97;;;;;;;22.28;34.07;96923.97;5062042;28;20484;-86
2021/03/31 11:16:43;;;;;;;18.63;10.80;;;;;;;22.17;34.38;96926.81;5063261;28;20438;-85
2021/03/31 11:19:21;;;;;;;17.17;10.87;;;;;;;22.02;34.59;96913.59;5071513;28;20450;-87
2021/03/31 11:27:15;;;;;;;19.70;10.77;;;;;;;22.06;34.36;96916.56;5066652;28;20490;-85
2021/03/31 11:29:42;;;;;;;20.27;11.33;;;;;;;22.28;34.05;96915.72;5066800;28;20505;-85
2021/03/31 11:32:08;;;;;;;21.73;11.23;;;;;;;22.26;33.73;96921.13;5065690;28;20443;-86
2021/03/31 11:34:35;;;;;;;17.80;11.27;;;;;;;22.02;33.74;96916.34;5061865;28;20954;-87
2021/03/31 11:37:01;;;;;;;16.50;11.70;;;;;;;21.99;33.64;96914.81;5062298;28;20512;-85
2021/03/31 11:39:27;;;;;;;22.90;11.90;;;;;;;22.18;33.33;96904.19;5062344;28;20430;-85
2021/03/31 11:41:53;;;;;;;22.53;10.73;;;;;;;22.25;33.21;96908.69;5061638;28;20486;-85
2021/03/31 11:44:19;;;;;;;21.43;11.50;;;;;;;22.36;33.48;96899.69;5061530;28;20477;-86